Time;durP1;ratioP1;P1;durP2;ratioP2;P2;SDS_P1;SDS_P2;PMS_P1;PMS_P2;Temp;Humidity;BMP_temperature;BMP_pressure;BME280_temperature;BME280_humidity;BME280_pressure;Samples;Min_cycle;Max_cycle;Signal;HPM_P1;HPM_P2
2021/09/05 00:00:04;;;;;;;15.85;5.92;;;;;;;6.16;89.86;99804.23;1731513;81;23354;-70
2021/09/05 00:02:33;;;;;;;15.10;6.70;;;;;;;6.14;89.67;99808.60;1717973;81;21441;-70
2021/09/05 00:04:59;;;;;;;17.70;6.78;;;;;;;6.11;89.38;99811.07;1705974;81;21516;-70
2021/09/05 00:07:26;;;;;;;16.73;6.85;;;;;;;6.08;89.41;99812.44;1706377;82;21001;-70
2021/09/05 00:09:52;;;;;;;12.47;6.42;;;;;;;6.05;89.42;99810.83;1732105;82;20886;-70
2021/09/05 00:12:19;;;;;;;13.65;6.75;;;;;;;6.00;89.26;99813.57;1744070;81;21124;-73
2021/09/05 00:14:45;;;;;;;14.53;6.35;;;;;;;5.94;89.32;99819.59;1750700;81;21600;-74
2021/09/05 00:17:14;;;;;;;12.50;6.17;;;;;;;5.90;89.46;99823.41;1726359;81;20851;-72
2021/09/05 00:19:41;;;;;;;13.40;5.90;;;;;;;5.87;89.50;99819.85;1720949;82;21096;-71
2021/09/05 00:22:07;;;;;;;15.13;6.40;;;;;;;5.84;89.35;99822.31;1730494;82;20997;-72
2021/09/05 00:24:36;;;;;;;15.15;6.33;;;;;;;5.77;89.36;99830.81;1724782;81;21517;-73
2021/09/05 00:27:05;;;;;;;14.85;6.37;;;;;;;5.64;89.26;99824.03;1711117;82;20946;-72
2021/09/05 00:29:32;;;;;;;14.40;5.87;;;;;;;5.55;89.45;99828.95;1718634;81;20993;-72
2021/09/05 00:31:58;;;;;;;13.75;5.75;;;;;;;5.47;89.63;99828.97;1700143;81;21602;-70
2021/09/05 00:34:25;;;;;;;16.17;5.30;;;;;;;5.41;89.57;99834.70;1690804;82;21595;-70
2021/09/05 00:36:53;;;;;;;13.78;5.67;;;;;;;5.34;89.64;99838.25;1700166;82;21964;-72
2021/09/05 00:39:22;;;;;;;14.13;4.45;;;;;;;5.30;89.58;99840.16;1702991;82;21533;-70
2021/09/05 00:41:49;;;;;;;12.03;4.35;;;;;;;5.24;89.61;99843.16;1690835;82;20897;-71
2021/09/05 00:44:16;;;;;;;13.22;4.75;;;;;;;5.21;89.72;99846.42;1706595;82;21017;-70
2021/09/05 00:46:45;;;;;;;13.83;5.05;;;;;;;5.19;89.74;99845.91;1724433;82;21009;-71
2021/09/05 00:49:11;;;;;;;9.90;4.65;;;;;;;5.16;89.91;99842.38;1708567;82;21133;-69
2021/09/05 00:51:43;;;;;;;7.78;3.60;;;;;;;5.14;90.38;99848.09;1735622;81;20945;-70
2021/09/05 00:54:14;;;;;;;7.03;4.17;;;;;;;5.14;90.53;99842.64;1744687;81;21007;-70
2021/09/05 00:56:43;;;;;;;12.95;4.22;;;;;;;5.14;90.60;99848.09;1736745;81;20958;-71
2021/09/05 00:59:17;;;;;;;11.93;4.20;;;;;;;5.12;90.53;99846.18;1715112;81;20890;-73
2021/09/05 01:01:45;;;;;;;10.15;3.90;;;;;;;5.11;90.47;99849.17;1727300;81;21136;-71
2021/09/05 01:04:12;;;;;;;10.30;4.33;;;;;;;5.11;90.72;99855.43;1711653;82;21528;-72
2021/09/05 01:06:40;;;;;;;11.75;4.33;;;;;;;5.14;90.73;99852.71;1706357;81;21108;-72
2021/09/05 01:09:07;;;;;;;8.55;4.03;;;;;;;5.13;90.59;99858.70;1718364;81;20906;-72
2021/09/05 01:11:36;;;;;;;13.38;4.65;;;;;;;5.13;90.70;99855.16;1731399;80;20950;-72
2021/09/05 01:14:05;;;;;;;11.25;4.83;;;;;;;5.13;90.84;99861.42;1724022;81;21496;-71
2021/09/05 01:16:37;;;;;;;10.10;4.53;;;;;;;5.12;90.76;99862.51;1735925;81;20921;-71
2021/09/05 01:19:24;;;;;;;10.65;4.70;;;;;;;5.07;90.60;99855.70;1637215;86;20948;-71
2021/09/05 01:22:04;;;;;;;9.78;4.50;;;;;;;5.02;90.59;99861.14;1633843;86;20928;-70
2021/09/05 01:24:39;;;;;;;10.75;4.33;;;;;;;5.00;90.74;99867.94;1671236;82;20992;-70
2021/09/05 01:27:16;;;;;;;10.10;4.33;;;;;;;4.97;90.81;99867.94;1721384;82;21556;-72
2021/09/05 01:30:03;;;;;;;9.48;4.53;;;;;;;4.94;90.75;99865.77;1662292;85;20956;-72
2021/09/05 01:32:49;;;;;;;11.25;4.30;;;;;;;4.88;90.91;99865.48;1657452;86;20988;-70
2021/09/05 01:35:23;;;;;;;7.10;3.98;;;;;;;4.84;90.96;99867.92;1678240;81;20938;-70
2021/09/05 01:37:51;;;;;;;14.13;4.60;;;;;;;4.80;90.87;99870.09;1703133;81;20897;-70
2021/09/05 01:40:21;;;;;;;9.15;3.62;;;;;;;4.76;90.92;99864.37;1720598;81;21534;-71
2021/09/05 01:42:55;;;;;;;9.70;3.90;;;;;;;4.75;91.16;99868.72;1714695;81;21001;-71
2021/09/05 01:45:41;;;;;;;8.08;3.65;;;;;;;4.74;91.22;99877.42;1737873;82;20866;-71
2021/09/05 01:48:12;;;;;;;9.10;3.70;;;;;;;4.73;91.19;99876.34;1688033;81;21968;-71
2021/09/05 01:50:46;;;;;;;11.33;3.83;;;;;;;4.69;91.02;99878.77;1716252;82;21539;-70
2021/09/05 01:53:15;;;;;;;8.83;3.77;;;;;;;4.66;91.15;99879.31;1712096;82;21179;-70
2021/09/05 01:56:00;;;;;;;6.28;3.50;;;;;;;4.63;91.15;99882.02;1744414;82;21598;-70
2021/09/05 01:58:47;;;;;;;6.62;3.67;;;;;;;4.60;91.16;99881.77;1660065;86;21093;-71
2021/09/05 02:01:30;;;;;;;11.65;3.85;;;;;;;4.56;91.27;99885.57;1671214;85;21125;-72
2021/09/05 02:04:04;;;;;;;18.27;4.97;;;;;;;4.53;91.31;99883.93;1692676;82;20886;-71
2021/09/05 02:06:36;;;;;;;9.65;3.52;;;;;;;4.51;91.54;99892.35;1736458;81;21115;-71
2021/09/05 02:09:13;;;;;;;10.53;4.90;;;;;;;4.52;91.64;99890.45;1689623;82;21104;-71
2021/09/05 02:11:48;;;;;;;8.40;3.83;;;;;;;4.50;91.60;99894.80;1722437;80;20978;-71
2021/09/05 02:14:32;;;;;;;9.75;4.12;;;;;;;4.46;92.16;99895.59;1723358;81;20882;-71
2021/09/05 02:17:04;;;;;;;26.52;5.33;;;;;;;4.46;92.16;99895.59;1729825;82;20913;-71
2021/09/05 02:19:37;;;;;;;27.32;4.67;;;;;;;4.48;92.70;99902.41;1721027;82;21178;-71
2021/09/05 02:22:23;;;;;;;20.20;4.62;;;;;;;4.49;92.65;99902.67;1728743;81;20878;-72
2021/09/05 02:25:09;;;;;;;10.98;5.12;;;;;;;4.52;93.09;99895.89;1705054;81;20949;-72
2021/09/05 02:27:55;;;;;;;10.50;4.55;;;;;;;4.56;93.50;99899.16;1737221;82;21037;-75
2021/09/05 02:30:23;;;;;;;21.17;4.90;;;;;;;4.56;93.26;99905.97;1706628;82;21057;-75
2021/09/05 02:33:02;;;;;;;11.83;4.87;;;;;;;4.56;93.25;99901.07;1725590;82;21492;-71
2021/09/05 02:35:33;;;;;;;10.13;3.87;;;;;;;4.57;93.32;99904.88;1722401;81;21016;-75
2021/09/05 02:38:08;;;;;;;9.35;4.45;;;;;;;4.59;93.23;99911.41;1708226;81;21512;-72
2021/09/05 02:40:51;;;;;;;8.15;3.98;;;;;;;4.60;93.54;99907.06;1731320;81;21432;-73
2021/09/05 02:43:37;;;;;;;12.33;4.10;;;;;;;4.63;93.54;99912.48;1699103;82;21092;-74
2021/09/05 02:46:16;;;;;;;9.03;4.35;;;;;;;4.57;93.35;99910.86;1667958;83;21002;-73
2021/09/05 02:49:01;;;;;;;9.40;4.10;;;;;;;4.50;93.33;99911.11;1725564;81;20889;-73
2021/09/05 02:51:42;;;;;;;10.72;3.85;;;;;;;4.43;93.00;99911.90;1707559;81;20970;-73
2021/09/05 02:54:29;;;;;;;11.08;5.10;;;;;;;4.37;93.00;99909.42;1678012;84;20976;-73
2021/09/05 02:57:05;;;;;;;9.08;4.30;;;;;;;4.29;92.87;99918.36;1685027;84;21535;-72
2021/09/05 02:59:34;;;;;;;11.90;4.37;;;;;;;4.29;92.87;99918.36;1694969;81;21154;-73
2021/09/05 03:02:02;;;;;;;8.78;3.90;;;;;;;4.27;93.38;99919.71;1730885;81;21623;-73
2021/09/05 03:04:49;;;;;;;12.13;4.45;;;;;;;4.24;93.64;99916.16;1681987;84;21516;-74
2021/09/05 03:07:17;;;;;;;10.43;4.03;;;;;;;4.23;93.27;99929.48;1680929;84;20937;-73
2021/09/05 03:10:05;;;;;;;9.10;4.15;;;;;;;4.18;93.14;99930.27;1689706;82;20994;-73
2021/09/05 03:12:33;;;;;;;8.53;4.17;;;;;;;4.14;93.11;99928.34;1692488;83;21145;-75
2021/09/05 03:15:11;;;;;;;15.03;4.25;;;;;;;4.13;93.43;99933.50;1720962;82;20912;-74
2021/09/05 03:17:39;;;;;;;6.80;3.55;;;;;;;4.10;93.67;99927.23;1659864;82;21052;-74
2021/09/05 03:20:12;;;;;;;8.63;3.37;;;;;;;4.10;93.61;99940.81;1711228;81;21084;-74
2021/09/05 03:22:53;;;;;;;6.62;3.08;;;;;;;4.10;93.61;99940.81;1728853;81;21148;-73
2021/09/05 03:25:25;;;;;;;9.10;4.42;;;;;;;4.12;93.89;99938.11;1687662;81;21185;-73
2021/09/05 03:28:08;;;;;;;8.68;4.97;;;;;;;4.16;94.24;99941.13;1719648;81;22282;-73
2021/09/05 03:30:53;;;;;;;7.85;4.87;;;;;;;4.18;94.49;99947.93;1736334;81;21084;-74
2021/09/05 03:33:25;;;;;;;11.73;5.15;;;;;;;4.17;94.57;99946.84;1690956;81;21555;-73
2021/09/05 03:35:54;;;;;;;11.70;5.25;;;;;;;4.18;94.58;99954.73;1695723;82;21092;-74
2021/09/05 03:38:22;;;;;;;12.18;4.55;;;;;;;4.20;94.66;99956.64;1732508;81;23254;-72
2021/09/05 03:40:50;;;;;;;10.63;4.70;;;;;;;4.25;94.83;99952.59;1731646;81;20877;-71
2021/09/05 03:43:35;;;;;;;7.35;4.15;;;;;;;4.28;94.87;99955.31;1722466;81;20974;-71
2021/09/05 03:46:04;;;;;;;7.55;4.20;;;;;;;4.31;94.61;99959.69;1706814;82;21573;-72
2021/09/05 03:48:36;;;;;;;10.50;3.83;;;;;;;4.31;94.82;99962.95;1622527;81;21044;-72
2021/09/05 03:51:10;;;;;;;9.45;3.62;;;;;;;4.31;94.82;99962.95;1737696;81;21147;-72
2021/09/05 03:53:40;;;;;;;7.60;3.87;;;;;;;4.30;94.73;99971.64;1729273;81;20849;-72
2021/09/05 03:56:07;;;;;;;8.30;4.62;;;;;;;4.37;95.14;99971.41;1736997;81;20965;-72
2021/09/05 03:58:34;;;;;;;11.15;4.05;;;;;;;4.42;95.04;99972.78;1737980;81;21082;-73
2021/09/05 04:01:00;;;;;;;6.12;4.35;;;;;;;4.46;95.12;99970.36;1726652;81;20942;-71
2021/09/05 04:03:27;;;;;;;7.97;3.52;;;;;;;4.53;95.23;99973.11;1719333;81;21533;-72
2021/09/05 04:05:55;;;;;;;7.60;3.58;;;;;;;4.62;95.42;99972.84;1724928;81;20925;-72
2021/09/05 04:08:30;;;;;;;10.05;3.42;;;;;;;4.73;95.58;99975.06;1749235;80;21138;-73
2021/09/05 04:10:51;;;;;;;6.83;3.85;;;;;;;4.82;95.71;99978.91;1707910;81;20981;-72
2021/09/05 04:13:18;;;;;;;7.05;3.75;;;;;;;4.89;95.68;99975.93;1707080;82;21067;-72
2021/09/05 04:15:46;;;;;;;9.03;4.03;;;;;;;4.97;95.63;99983.58;1702410;82;21030;-71
2021/09/05 04:18:12;;;;;;;6.83;3.60;;;;;;;5.04;95.63;99977.33;1672718;83;21752;-73
2021/09/05 04:20:39;;;;;;;7.42;3.75;;;;;;;5.13;95.78;99985.25;1726481;80;21052;-72
2021/09/05 04:23:06;;;;;;;6.55;3.25;;;;;;;5.23;95.96;99986.59;1716775;81;21003;-70
2021/09/05 04:25:34;;;;;;;8.78;4.30;;;;;;;5.36;96.21;99988.52;1714563;81;21085;-76
2021/09/05 04:28:00;;;;;;;11.12;4.15;;;;;;;5.47;95.89;99987.45;1743734;81;21562;-70
2021/09/05 04:30:27;;;;;;;8.75;3.80;;;;;;;5.56;95.89;99994.80;1736497;81;20987;-70
2021/09/05 04:32:53;;;;;;;9.90;4.10;;;;;;;5.65;95.80;99996.45;1745205;81;20997;-71
2021/09/05 04:35:20;;;;;;;8.98;4.40;;;;;;;5.76;95.80;99994.54;1714993;81;20941;-70
2021/09/05 04:37:48;;;;;;;9.10;4.60;;;;;;;5.85;95.88;100001.86;1732647;81;21101;-71
2021/09/05 04:40:15;;;;;;;24.07;5.00;;;;;;;5.95;95.73;100003.80;1740139;81;21143;-71
2021/09/05 04:42:41;;;;;;;16.05;5.00;;;;;;;6.10;95.66;99998.88;1725175;81;20970;-71
2021/09/05 04:45:09;;;;;;;10.78;5.05;;;;;;;6.24;95.49;100001.30;1749218;81;21038;-71
2021/09/05 04:47:35;;;;;;;9.18;4.58;;;;;;;6.36;95.41;100002.34;1742013;81;20978;-72
2021/09/05 04:50:04;;;;;;;12.23;4.37;;;;;;;6.50;95.36;100007.48;1701596;82;20999;-73
2021/09/05 04:52:31;;;;;;;12.20;4.47;;;;;;;6.62;95.11;100010.17;1721082;81;22127;-70
2021/09/05 04:55:00;;;;;;;9.63;3.98;;;;;;;6.76;94.87;100012.31;1702045;81;21067;-73
2021/09/05 04:57:28;;;;;;;8.98;3.52;;;;;;;6.90;94.60;100010.61;1725905;81;20917;-72
2021/09/05 04:59:54;;;;;;;7.97;3.70;;;;;;;7.07;94.06;100022.52;1732345;81;20957;-75
2021/09/05 05:02:20;;;;;;;9.15;3.87;;;;;;;7.19;92.82;100015.62;1745431;81;20990;-72
2021/09/05 05:04:47;;;;;;;11.15;3.98;;;;;;;7.29;92.17;100022.39;1741045;81;21113;-73
2021/09/05 05:07:14;;;;;;;14.53;3.65;;;;;;;7.41;91.41;100014.40;1738997;81;21043;-74
2021/09/05 05:09:43;;;;;;;12.93;4.08;;;;;;;7.51;91.06;100019.22;1721057;81;21043;-72
2021/09/05 05:12:11;;;;;;;12.18;4.05;;;;;;;7.62;90.96;100019.96;1725122;81;21057;-73
2021/09/05 05:14:40;;;;;;;12.10;4.33;;;;;;;7.74;90.82;100018.23;1720967;81;21508;-72
2021/09/05 05:17:07;;;;;;;10.93;4.55;;;;;;;7.83;89.45;100016.52;1731527;81;21490;-70
2021/09/05 05:19:34;;;;;;;13.43;4.45;;;;;;;7.91;89.42;100020.82;1746521;81;22192;-70
2021/09/05 05:22:03;;;;;;;12.63;5.37;;;;;;;8.00;88.63;100015.55;1740461;80;20929;-71
2021/09/05 05:24:31;;;;;;;11.90;4.85;;;;;;;8.10;88.52;100018.72;1716122;82;20937;-72
2021/09/05 05:26:58;;;;;;;9.35;4.22;;;;;;;8.17;87.70;100021.38;1729450;82;20941;-71
2021/09/05 05:29:24;;;;;;;11.55;3.00;;;;;;;8.23;87.13;100018.05;1733727;81;21475;-73
2021/09/05 05:31:52;;;;;;;5.70;3.22;;;;;;;8.31;86.61;100022.89;1728177;81;20982;-74
2021/09/05 05:34:21;;;;;;;11.15;3.70;;;;;;;8.36;86.23;100018.77;1731697;81;21500;-73
2021/09/05 05:36:47;;;;;;;5.12;3.00;;;;;;;8.43;86.35;100023.34;1728649;81;21606;-72
2021/09/05 05:39:14;;;;;;;7.28;3.47;;;;;;;8.53;86.02;100025.16;1726922;82;20940;-71
2021/09/05 05:41:40;;;;;;;6.08;3.25;;;;;;;8.60;84.90;100021.52;1722342;82;21098;-73
2021/09/05 05:44:08;;;;;;;9.13;3.50;;;;;;;8.68;84.59;100028.25;1735492;81;21940;-73
2021/09/05 05:46:35;;;;;;;8.05;3.50;;;;;;;8.74;84.32;100027.08;1720513;82;20942;-73
2021/09/05 05:49:01;;;;;;;8.75;3.00;;;;;;;8.80;84.27;100030.02;1722993;82;20990;-72
2021/09/05 05:51:27;;;;;;;10.85;3.65;;;;;;;8.89;84.16;100029.64;1731932;82;20982;-71
2021/09/05 05:53:54;;;;;;;10.70;3.60;;;;;;;8.99;83.82;100035.55;1714762;81;21142;-70
2021/09/05 05:56:22;;;;;;;8.75;3.02;;;;;;;9.08;83.75;100041.45;1729438;81;21530;-70
2021/09/05 05:58:50;;;;;;;8.23;3.15;;;;;;;9.21;83.18;100037.17;1724409;82;20941;-70
2021/09/05 06:01:17;;;;;;;9.33;3.08;;;;;;;9.28;82.91;100038.41;1746536;81;20938;-70
2021/09/05 06:03:46;;;;;;;6.87;3.00;;;;;;;9.43;83.97;100042.05;1738406;81;21097;-69
2021/09/05 06:06:13;;;;;;;7.05;3.15;;;;;;;9.60;82.93;100040.98;1701180;81;21140;-69
2021/09/05 06:08:41;;;;;;;7.47;2.98;;;;;;;9.75;82.21;100046.23;1712541;81;20894;-69
2021/09/05 06:11:08;;;;;;;5.10;2.62;;;;;;;9.86;79.87;100041.38;1723040;81;20965;-74
2021/09/05 06:13:36;;;;;;;8.38;2.75;;;;;;;9.90;80.29;100048.70;1726112;81;21532;-71
2021/09/05 06:16:05;;;;;;;6.95;3.00;;;;;;;10.02;79.56;100056.47;1698733;82;21511;-71
2021/09/05 06:18:32;;;;;;;6.25;2.60;;;;;;;10.12;78.85;100056.86;1713862;82;21063;-73
2021/09/05 06:21:00;;;;;;;5.28;2.58;;;;;;;10.22;79.27;100054.78;1691222;82;20967;-71
2021/09/05 06:23:27;;;;;;;3.50;2.20;;;;;;;10.39;80.35;100055.59;1715293;82;20942;-69
2021/09/05 06:25:53;;;;;;;7.40;2.65;;;;;;;10.51;78.20;100058.63;1694480;82;21489;-72
2021/09/05 06:28:21;;;;;;;8.20;2.85;;;;;;;10.62;78.52;100061.19;1699361;82;21319;-72
2021/09/05 06:30:47;;;;;;;6.17;2.60;;;;;;;10.72;78.34;100059.62;1711838;83;21043;-72
2021/09/05 06:33:14;;;;;;;5.50;2.87;;;;;;;10.87;78.05;100063.45;1691207;83;21450;-71
2021/09/05 06:35:40;;;;;;;7.08;2.80;;;;;;;11.04;78.06;100063.63;1713507;83;20947;-72
2021/09/05 06:38:07;;;;;;;6.53;2.62;;;;;;;11.21;77.08;100064.37;1727277;82;20870;-73
2021/09/05 06:40:34;;;;;;;5.95;2.83;;;;;;;11.36;77.45;100070.92;1716457;82;20935;-71
2021/09/05 06:43:03;;;;;;;4.40;1.95;;;;;;;11.48;76.00;100075.89;1726083;81;21107;-68
2021/09/05 06:45:29;;;;;;;7.70;2.10;;;;;;;11.61;74.61;100070.89;1726560;82;21891;-83
2021/09/05 06:47:58;;;;;;;8.30;2.77;;;;;;;11.75;75.08;100073.05;1723972;81;20959;-74
2021/09/05 06:50:24;;;;;;;7.33;2.62;;;;;;;11.95;74.09;100075.09;1710602;81;21087;-71
2021/09/05 06:52:51;;;;;;;10.00;2.25;;;;;;;12.09;73.57;100066.22;1718186;81;21060;-70
2021/09/05 06:55:17;;;;;;;6.58;2.27;;;;;;;12.24;72.93;100074.07;1713244;82;21147;-72
2021/09/05 06:57:45;;;;;;;6.62;3.22;;;;;;;12.38;71.41;100074.81;1695203;83;21056;-70
2021/09/05 07:00:12;;;;;;;5.45;3.20;;;;;;;12.48;69.99;100081.44;1679238;83;21054;-72
2021/09/05 07:02:39;;;;;;;7.90;3.08;;;;;;;12.60;70.01;100078.09;1700811;83;21066;-68
2021/09/05 07:05:07;;;;;;;7.05;2.50;;;;;;;12.71;69.80;100084.14;1681237;84;21634;-69
2021/09/05 07:07:34;;;;;;;6.42;2.22;;;;;;;12.87;70.74;100082.01;1711005;83;21771;-73
2021/09/05 07:10:01;;;;;;;8.50;2.52;;;;;;;13.05;70.05;100080.13;1709852;83;21114;-68
2021/09/05 07:12:28;;;;;;;6.55;3.08;;;;;;;13.21;70.49;100086.05;1687801;83;21553;-70
2021/09/05 07:14:54;;;;;;;4.33;2.35;;;;;;;13.44;70.91;100089.48;1698467;83;21443;-71
2021/09/05 07:17:21;;;;;;;31.87;4.22;;;;;;;13.67;70.28;100092.38;1695477;83;21495;-70
2021/09/05 07:19:47;;;;;;;66.60;5.62;;;;;;;13.89;68.77;100093.58;1708709;83;21165;-70
2021/09/05 07:22:16;;;;;;;76.10;7.22;;;;;;;14.08;67.70;100090.49;1694474;83;21084;-70
2021/09/05 07:24:43;;;;;;;61.75;6.60;;;;;;;14.17;64.80;100089.11;1698322;83;20867;-72
2021/09/05 07:27:10;;;;;;;42.98;4.90;;;;;;;14.26;65.08;100090.48;1664929;83;21023;-70
2021/09/05 07:29:38;;;;;;;20.57;3.77;;;;;;;14.51;63.48;100093.77;1696368;83;21112;-71
2021/09/05 07:32:07;;;;;;;3.65;1.75;;;;;;;14.93;62.21;100090.64;1691635;83;21165;-70
2021/09/05 07:34:34;;;;;;;6.25;1.70;;;;;;;15.43;60.36;100090.69;1691945;83;21455;-72
2021/09/05 07:37:02;;;;;;;4.17;1.55;;;;;;;15.95;56.72;100092.28;1699367;83;20888;-72
2021/09/05 07:39:29;;;;;;;3.10;1.42;;;;;;;16.35;56.01;100093.36;1700306;83;20971;-67
2021/09/05 07:41:56;;;;;;;3.80;1.57;;;;;;;16.72;53.48;100093.50;1702343;83;20955;-67
2021/09/05 07:44:22;;;;;;;45.85;4.97;;;;;;;17.05;52.83;100091.45;1654575;84;21144;-67
2021/09/05 07:46:48;;;;;;;14.13;2.40;;;;;;;17.39;51.47;100094.89;1695801;83;21012;-68
2021/09/05 07:49:15;;;;;;;11.53;2.58;;;;;;;17.57;50.55;100101.00;1701463;83;20937;-68
2021/09/05 07:51:41;;;;;;;11.88;2.00;;;;;;;17.84;50.45;100105.05;1695963;83;21017;-70
2021/09/05 07:54:08;;;;;;;10.40;1.72;;;;;;;18.23;49.39;100107.56;1694158;83;21054;-69
2021/09/05 07:56:35;;;;;;;27.22;3.80;;;;;;;18.51;47.24;100099.19;1687137;83;21161;-74
2021/09/05 07:59:02;;;;;;;17.40;3.10;;;;;;;18.68;48.43;100104.45;1696926;84;20983;-75
2021/09/05 08:01:28;;;;;;;8.90;2.98;;;;;;;18.99;48.66;100106.47;1691797;83;21003;-68
2021/09/05 08:03:55;;;;;;;25.43;6.12;;;;;;;19.20;43.65;100102.00;1692871;82;21431;-72
2021/09/05 08:06:23;;;;;;;9.20;4.10;;;;;;;19.22;44.48;100102.45;1710178;82;20899;-74
2021/09/05 08:08:50;;;;;;;6.67;3.58;;;;;;;19.28;42.19;100103.79;1719570;83;21158;-73
2021/09/05 08:11:16;;;;;;;4.67;2.42;;;;;;;19.33;41.49;100097.95;1701564;83;20974;-69
2021/09/05 08:13:43;;;;;;;7.22;2.00;;;;;;;19.47;42.75;100099.69;1704133;83;21032;-71
2021/09/05 08:16:10;;;;;;;8.28;1.72;;;;;;;19.75;40.24;100098.14;1680938;83;20945;-71
2021/09/05 08:18:38;;;;;;;6.78;1.17;;;;;;;19.69;40.33;100096.81;1695632;83;20986;-71
2021/09/05 08:21:06;;;;;;;4.70;1.12;;;;;;;19.85;40.74;100103.14;1695384;83;21063;-71
2021/09/05 08:23:34;;;;;;;5.80;2.27;;;;;;;20.18;40.82;100099.06;1706561;83;20862;-69
2021/09/05 08:26:00;;;;;;;5.25;1.55;;;;;;;20.45;36.75;100109.19;1701942;83;20946;-70
2021/09/05 08:28:27;;;;;;;5.30;2.77;;;;;;;20.31;36.77;100105.49;1718455;83;21012;-70
2021/09/05 08:30:54;;;;;;;7.90;3.33;;;;;;;19.78;36.74;100109.36;1689422;83;21012;-74
2021/09/05 08:33:20;;;;;;;4.03;2.55;;;;;;;19.30;38.56;100113.39;1692606;83;21206;-71
2021/09/05 08:35:51;;;;;;;2.20;1.52;;;;;;;19.34;39.83;100113.48;1696673;83;21006;-71
2021/09/05 08:38:24;;;;;;;2.08;1.10;;;;;;;19.60;38.36;100113.75;1681842;83;21506;-72
2021/09/05 08:40:57;;;;;;;1.27;0.80;;;;;;;19.76;36.99;100116.47;1709417;82;21573;-68
2021/09/05 08:43:28;;;;;;;3.60;1.10;;;;;;;19.92;35.17;100114.45;1701854;82;21024;-69
2021/09/05 08:45:56;;;;;;;2.22;1.05;;;;;;;19.98;36.41;100121.34;1722682;82;21173;-68
2021/09/05 08:48:26;;;;;;;1.95;0.98;;;;;;;20.11;38.11;100119.23;1717927;82;21159;-68
2021/09/05 08:50:57;;;;;;;2.08;1.10;;;;;;;20.33;36.28;100112.91;1723460;82;20927;-68
2021/09/05 08:53:26;;;;;;;4.50;1.00;;;;;;;20.49;35.41;100119.83;1713343;81;20965;-69
2021/09/05 08:55:53;;;;;;;3.47;1.50;;;;;;;20.53;37.33;100114.31;1728774;82;21013;-70
2021/09/05 08:58:28;;;;;;;3.65;1.20;;;;;;;20.88;35.66;100119.14;1739564;82;21141;-72
2021/09/05 09:00:58;;;;;;;3.52;1.12;;;;;;;20.70;35.97;100113.27;1682092;82;21538;-70
2021/09/05 09:03:28;;;;;;;2.02;1.00;;;;;;;20.11;34.81;100112.27;1731526;82;20914;-71
2021/09/05 09:05:57;;;;;;;2.35;1.42;;;;;;;19.42;35.13;100116.08;1746720;81;20882;-72
2021/09/05 09:08:25;;;;;;;3.08;1.25;;;;;;;18.99;37.39;100111.45;1734796;81;21486;-72
2021/09/05 09:11:04;;;;;;;4.58;1.30;;;;;;;19.05;37.38;100103.64;1743874;82;20892;-72
2021/09/05 09:13:37;;;;;;;8.05;2.62;;;;;;;19.41;37.73;100110.88;1746582;81;20964;-71
2021/09/05 09:16:12;;;;;;;4.70;1.22;;;;;;;19.73;36.64;100106.86;1712165;82;20893;-71
2021/09/05 09:18:47;;;;;;;51.80;5.37;;;;;;;20.02;37.05;100103.31;1723034;81;20971;-73
2021/09/05 09:21:24;;;;;;;5.83;1.55;;;;;;;19.96;36.70;100106.97;1718211;81;20856;-72
2021/09/05 09:23:55;;;;;;;2.47;0.82;;;;;;;19.67;37.96;100114.47;1728151;80;21181;-73
2021/09/05 09:26:27;;;;;;;1.20;0.90;;;;;;;19.32;36.89;100110.25;1705602;82;21074;-70
2021/09/05 09:28:56;;;;;;;2.30;1.05;;;;;;;19.12;35.99;100114.34;1734122;81;20965;-71
2021/09/05 09:31:26;;;;;;;1.57;0.98;;;;;;;19.09;36.65;100115.06;1685864;82;20950;-70
2021/09/05 09:34:02;;;;;;;3.77;0.72;;;;;;;19.28;37.67;100113.53;1699663;82;20957;-69
2021/09/05 09:36:30;;;;;;;1.10;0.62;;;;;;;19.77;35.34;100118.89;1726666;81;21786;-70
2021/09/05 09:39:10;;;;;;;2.58;1.12;;;;;;;20.35;35.13;100109.75;1727068;82;21157;-72
2021/09/05 09:41:41;;;;;;;2.77;1.20;;;;;;;20.93;35.34;100104.08;1702624;82;20973;-70
2021/09/05 09:44:14;;;;;;;5.60;1.50;;;;;;;21.35;33.87;100104.03;1726824;82;20997;-71
2021/09/05 09:46:47;;;;;;;4.83;1.42;;;;;;;21.30;33.21;100110.73;1712872;82;21015;-70
2021/09/05 09:49:19;;;;;;;5.42;1.20;;;;;;;20.97;33.44;100107.15;1723136;82;21151;-71
2021/09/05 09:51:50;;;;;;;1.22;0.90;;;;;;;20.95;34.79;100109.51;1726854;81;21114;-71
2021/09/05 09:54:21;;;;;;;4.20;1.22;;;;;;;21.27;34.24;100110.09;1685120;81;20979;-72
2021/09/05 09:56:53;;;;;;;11.03;3.77;;;;;;;21.41;31.67;100107.50;1726007;81;20927;-71
2021/09/05 09:59:22;;;;;;;5.15;2.52;;;;;;;21.26;31.96;100111.86;1723694;82;20936;-70
2021/09/05 10:01:55;;;;;;;4.20;2.15;;;;;;;21.06;29.56;100106.31;1704851;82;20914;-72
2021/09/05 10:04:23;;;;;;;2.60;1.40;;;;;;;20.97;32.54;100102.16;1677569;81;21488;-71
2021/09/05 10:06:56;;;;;;;3.87;1.70;;;;;;;21.10;31.31;100106.38;1693774;82;20901;-70
2021/09/05 10:09:29;;;;;;;7.83;2.15;;;;;;;21.34;33.38;100096.83;1669759;84;20970;-71
2021/09/05 10:12:02;;;;;;;4.40;1.27;;;;;;;21.73;31.81;100104.39;1693882;83;21486;-70
2021/09/05 10:14:35;;;;;;;10.70;2.10;;;;;;;22.03;31.22;100101.02;1679289;83;21214;-70
2021/09/05 10:17:03;;;;;;;21.62;4.47;;;;;;;22.31;29.28;100101.97;1681742;83;21423;-71
2021/09/05 10:19:34;;;;;;;7.33;1.90;;;;;;;22.49;30.34;100099.98;1693396;83;21005;-73
2021/09/05 10:22:08;;;;;;;8.73;1.15;;;;;;;22.71;28.94;100099.00;1676313;83;20946;-71
2021/09/05 10:24:45;;;;;;;1.42;0.80;;;;;;;22.72;28.72;100096.41;1671580;83;21069;-71
2021/09/05 10:27:14;;;;;;;1.75;1.12;;;;;;;22.53;29.36;100100.20;1671042;83;21152;-71
2021/09/05 10:30:11;;;;;;;4.35;1.15;;;;;;;22.00;30.01;100099.55;1688775;83;21139;-71
2021/09/05 10:32:57;;;;;;;4.12;1.30;;;;;;;21.26;30.35;100097.90;1689844;82;20984;-73
2021/09/05 10:35:30;;;;;;;3.08;1.55;;;;;;;20.86;33.32;100108.95;1672944;83;21306;-69
2021/09/05 10:38:21;;;;;;;6.70;3.47;;;;;;;21.17;33.96;100107.09;1714150;82;21584;-71
2021/09/05 10:40:54;;;;;;;13.08;5.83;;;;;;;21.57;32.13;100102.34;1679734;83;21983;-71
2021/09/05 10:43:41;;;;;;;5.03;3.08;;;;;;;21.67;30.34;100099.72;1690544;83;20945;-71
2021/09/05 10:46:15;;;;;;;8.20;2.02;;;;;;;21.84;31.84;100096.96;1688876;83;20979;-72
2021/09/05 10:49:02;;;;;;;2.70;1.22;;;;;;;22.32;30.25;100098.58;1680899;83;20914;-70
2021/09/05 10:51:47;;;;;;;5.30;0.95;;;;;;;22.66;29.73;100094.55;1686757;83;21003;-70
2021/09/05 10:54:27;;;;;;;1.30;1.10;;;;;;;22.95;27.70;100092.88;1719095;80;21153;-69
2021/09/05 10:56:58;;;;;;;5.58;1.07;;;;;;;22.91;27.27;100087.84;1725546;81;20904;-69
2021/09/05 10:59:32;;;;;;;2.25;0.80;;;;;;;22.59;27.32;100090.88;1730546;82;20943;-70
2021/09/05 11:02:06;;;;;;;2.10;1.20;;;;;;;22.05;27.80;100093.66;1723617;82;21028;-71
2021/09/05 11:04:41;;;;;;;2.65;1.20;;;;;;;21.42;29.85;100089.56;1738986;82;21014;-70
2021/09/05 11:07:28;;;;;;;4.17;0.80;;;;;;;20.91;31.13;100101.66;1712790;82;20942;-71
2021/09/05 11:09:59;;;;;;;2.37;0.93;;;;;;;20.46;31.33;100108.02;1682283;81;20973;-70
2021/09/05 11:12:42;;;;;;;4.60;1.00;;;;;;;19.97;33.11;100106.39;1720254;81;21011;-68
2021/09/05 11:15:16;;;;;;;2.55;1.05;;;;;;;19.49;35.00;100108.48;1722188;82;20981;-68
2021/09/05 11:17:47;;;;;;;2.83;0.93;;;;;;;18.92;36.15;100116.02;1733717;81;21011;-68
2021/09/05 11:20:20;;;;;;;3.12;0.98;;;;;;;18.53;38.46;100116.32;1689757;83;21503;-68
2021/09/05 11:22:51;;;;;;;1.90;1.25;;;;;;;18.49;39.01;100116.23;1662663;84;20952;-68
2021/09/05 11:25:28;;;;;;;2.67;1.00;;;;;;;18.74;39.05;100109.98;1706455;83;20987;-68
2021/09/05 11:28:14;;;;;;;2.05;1.30;;;;;;;19.31;38.47;100106.66;1712246;83;21027;-70
2021/09/05 11:30:49;;;;;;;2.05;1.00;;;;;;;19.94;38.57;100111.30;1700188;83;21021;-71
2021/09/05 11:33:24;;;;;;;2.15;1.10;;;;;;;20.37;36.27;100106.81;1707151;81;21151;-69
2021/09/05 11:36:00;;;;;;;1.10;0.80;;;;;;;20.65;33.49;100101.02;1721160;82;20876;-72
2021/09/05 11:38:38;;;;;;;4.33;1.05;;;;;;;20.93;35.23;100099.89;1731087;81;21564;-69
2021/09/05 11:41:09;;;;;;;2.00;1.10;;;;;;;21.36;34.44;100100.06;1722388;81;20938;-72
2021/09/05 11:43:39;;;;;;;2.77;0.90;;;;;;;21.93;32.57;100091.90;1731399;81;21048;-70
2021/09/05 11:46:19;;;;;;;2.05;1.20;;;;;;;22.27;34.19;100098.92;1729397;81;21163;-71